createdAt,value
2022-08-05T00:02:07.886Z,9.50
2022-08-05T00:08:54.579Z,9.50
2022-08-05T00:15:57.694Z,8.80
2022-08-05T00:22:41.483Z,7.80
2022-08-05T00:44:04.183Z,8.10
2022-08-05T00:57:31.829Z,10.90
2022-08-05T01:04:26.760Z,7.40
2022-08-05T01:18:48.172Z,11.30
2022-08-05T07:21:25.595Z,11.30
2022-08-05T08:08:06.804Z,18.80
2022-08-05T08:14:32.899Z,12.20
2022-08-05T10:09:02.025Z,8.60
2022-08-05T10:15:54.592Z,14.90
2022-08-05T10:22:40.525Z,9.40
2022-08-05T10:30:06.868Z,7.70
2022-08-05T10:36:35.090Z,38.20
2022-08-05T10:43:17.565Z,12.20
2022-08-05T10:50:32.473Z,10.50
2022-08-05T10:57:19.111Z,15.50
2022-08-05T11:11:57.527Z,5.50
2022-08-05T11:18:06.875Z,21.00
2022-08-05T11:24:30.383Z,11.90
2022-08-05T11:54:40.709Z,8.90
2022-08-05T12:01:26.426Z,8.80
2022-08-05T12:08:11.853Z,8.90
2022-08-05T12:15:05.871Z,8.70
2022-08-05T12:22:04.039Z,9.20
2022-08-05T12:34:23.794Z,7.20
2022-08-05T12:53:43.408Z,6.60
2022-08-05T13:02:00.626Z,5.80
2022-08-05T13:06:50.754Z,5.60
2022-08-05T13:21:21.833Z,6.60
2022-08-05T13:28:08.370Z,4.70
2022-08-05T13:54:15.283Z,5.90
2022-08-05T14:01:03.028Z,9.10
2022-08-05T14:07:25.559Z,4.50
2022-08-05T14:14:14.904Z,6.90
2022-08-05T14:54:28.681Z,7.50
2022-08-05T14:59:51.479Z,6.00
2022-08-05T15:06:16.000Z,5.60
2022-08-05T15:12:59.701Z,4.20
2022-08-05T15:18:58.163Z,5.40
2022-08-05T15:24:49.355Z,5.40
2022-08-05T15:31:11.931Z,6.10
2022-08-05T15:37:19.390Z,6.10
2022-08-05T15:44:05.300Z,5.10
2022-08-05T15:50:31.502Z,6.10
2022-08-05T15:56:15.154Z,7.40
2022-08-05T16:03:05.231Z,5.40
2022-08-05T16:09:46.906Z,4.90
2022-08-05T16:16:55.980Z,6.10
2022-08-05T16:23:53.909Z,7.00
2022-08-05T16:38:03.627Z,7.40
2022-08-05T16:44:54.303Z,6.00
2022-08-05T16:51:51.070Z,8.40
2022-08-05T16:59:10.365Z,4.80
2022-08-05T17:05:54.236Z,8.50
2022-08-05T17:12:51.699Z,7.90
2022-08-05T17:19:09.690Z,7.40
2022-08-05T17:32:17.006Z,7.80
2022-08-05T17:38:23.059Z,7.50
2022-08-05T17:45:10.108Z,9.30
2022-08-05T17:58:13.059Z,12.00
2022-08-05T18:04:07.807Z,8.70
2022-08-05T18:34:58.711Z,18.40
2022-08-05T19:06:11.443Z,15.50
2022-08-05T19:13:12.283Z,24.70
2022-08-05T19:20:11.832Z,18.00
2022-08-05T19:27:12.087Z,17.10
2022-08-05T19:34:10.617Z,15.20
2022-08-05T19:41:06.988Z,18.60
2022-08-05T20:00:28.146Z,19.30
2022-08-05T20:03:38.041Z,18.20
2022-08-05T20:07:59.435Z,18.00
2022-08-05T20:13:54.715Z,16.90
2022-08-05T20:26:40.000Z,18.80
2022-08-05T20:33:27.783Z,20.20
2022-08-05T20:40:34.664Z,14.10
2022-08-05T20:47:32.198Z,16.00
2022-08-05T21:00:21.094Z,17.80
2022-08-05T21:49:58.745Z,19.80
2022-08-05T22:02:08.981Z,17.20
2022-08-05T22:07:40.392Z,35.20
2022-08-05T22:14:34.515Z,36.90
2022-08-05T22:20:03.266Z,33.40
2022-08-05T22:26:11.398Z,25.90
2022-08-05T22:31:44.477Z,20.30
2022-08-05T22:58:43.726Z,15.30
2022-08-05T23:18:03.609Z,13.60
2022-08-05T23:23:53.805Z,14.80
2022-08-05T23:29:17.796Z,13.60
2022-08-05T23:34:41.193Z,14.00
2022-08-05T23:40:07.825Z,13.10
2022-08-05T23:45:31.286Z,13.20
2022-08-05T23:50:55.172Z,13.50
2022-08-05T23:56:20.021Z,14.70
